Terminal Aerodrome Forecast
Issued by NWS Pueblo, CO

Home | Current Version | Previous Version | Text Only | Print | Product List | Glossary On
Versions: 1 2 3 4 5 6 7 8 9 10 11 12 13 14 15 16 17 18 19 20 21 22 23 24 25 26 27 28 29 30 31 32 33 34 35 36 37 38 39
000
FTUS45 KPUB 211242 AAB
TAFPUB
TAF AMD
KPUB 211242Z 2113/2212 02005KT P6SM VCSH OVC020
      TEMPO 2113/2114 4SM -SHRA BR SCT010 OVC015
     FM211600 35011KT P6SM SCT040 BKN080
     FM212100 06010KT P6SM VCSH SCT050 BKN100
     FM220200 10006KT P6SM SCT040 BKN060
     FM220600 VRB04KT P6SM SCT030 BKN040=

USA.gov is the U.S. government's official web portal to all federal, state and local government web resources and services.